Time;durP1;ratioP1;P1;durP2;ratioP2;P2;SDS_P1;SDS_P2;PMS_P1;PMS_P2;Temp;Humidity;BMP_temperature;BMP_pressure;BME280_temperature;BME280_humidity;BME280_pressure;Samples;Min_cycle;Max_cycle;Signal;HPM_P1;HPM_P2
2022/03/26 00:00:29;;;;;;;;;;;20.50;34.40;;;;;;5072362;28;20415;-47
2022/03/26 00:02:56;;;;;;;;;;;20.50;34.30;;;;;;5059310;28;20427;-50
2022/03/26 00:05:23;;;;;;;;;;;20.50;34.30;;;;;;5061751;28;20008;-44
2022/03/26 00:07:52;;;;;;;;;;;20.50;34.30;;;;;;5056305;28;19921;-45
2022/03/26 00:10:19;;;;;;;;;;;20.50;34.30;;;;;;5065790;28;19978;-49
2022/03/26 00:12:46;;;;;;;;;;;20.50;34.40;;;;;;5059901;28;19931;-45
2022/03/26 00:15:13;;;;;;;;;;;20.50;34.40;;;;;;5064412;28;20374;-46
2022/03/26 00:17:42;;;;;;;;;;;20.50;34.30;;;;;;5060282;28;19921;-45
2022/03/26 00:20:09;;;;;;;;;;;20.50;34.40;;;;;;5059595;28;19933;-45
2022/03/26 00:22:35;;;;;;;;;;;20.50;34.40;;;;;;5071278;28;19927;-48
2022/03/26 00:25:02;;;;;;;;;;;20.50;34.40;;;;;;5062039;28;20311;-46
2022/03/26 00:27:30;;;;;;;;;;;20.50;34.40;;;;;;5066031;28;19982;-50
2022/03/26 00:29:57;;;;;;;;;;;20.50;34.30;;;;;;5066436;28;19932;-47
2022/03/26 00:32:26;;;;;;;;;;;20.50;34.40;;;;;;5076213;28;19921;-45
2022/03/26 00:34:54;;;;;;;;;;;20.50;34.30;;;;;;5067993;28;19960;-44
2022/03/26 00:37:21;;;;;;;;;;;20.50;34.40;;;;;;5064770;28;19983;-46
2022/03/26 00:39:48;;;;;;;;;;;20.50;34.40;;;;;;5067685;28;19920;-47
2022/03/26 00:42:15;;;;;;;;;;;20.50;34.40;;;;;;5066915;28;19943;-46
2022/03/26 00:44:41;;;;;;;;;;;20.50;34.40;;;;;;5069429;28;19933;-47
2022/03/26 00:47:08;;;;;;;;;;;20.50;34.40;;;;;;5099456;28;19927;-47
2022/03/26 00:49:35;;;;;;;;;;;20.50;34.40;;;;;;5070646;28;19927;-46
2022/03/26 00:52:03;;;;;;;;;;;20.50;34.40;;;;;;5071768;28;19920;-44
2022/03/26 00:54:30;;;;;;;;;;;20.50;34.40;;;;;;5073921;28;20377;-46
2022/03/26 00:56:57;;;;;;;;;;;20.50;34.40;;;;;;5096953;28;19950;-45
2022/03/26 00:59:24;;;;;;;;;;;20.50;34.50;;;;;;5065282;28;19921;-45
2022/03/26 01:01:54;;;;;;;;;;;20.50;34.50;;;;;;5062450;28;19943;-48
2022/03/26 01:04:21;;;;;;;;;;;20.50;34.50;;;;;;5069825;28;19920;-43
2022/03/26 01:06:48;;;;;;;;;;;20.50;34.50;;;;;;5066004;28;19920;-44
2022/03/26 01:09:17;;;;;;;;;;;20.50;34.50;;;;;;5084773;28;20477;-44
2022/03/26 01:11:43;;;;;;;;;;;20.50;34.40;;;;;;5070948;28;19956;-43
2022/03/26 01:14:10;;;;;;;;;;;20.50;34.50;;;;;;5071153;28;19933;-45
2022/03/26 01:16:37;;;;;;;;;;;20.50;34.50;;;;;;5069276;28;19928;-45
2022/03/26 01:19:04;;;;;;;;;;;20.60;34.50;;;;;;5071255;28;20011;-46
2022/03/26 01:21:31;;;;;;;;;;;20.50;34.50;;;;;;5075389;28;19921;-48
2022/03/26 01:23:58;;;;;;;;;;;20.50;34.50;;;;;;5065026;28;19921;-44
2022/03/26 01:26:26;;;;;;;;;;;20.50;34.50;;;;;;5065139;28;20040;-44
2022/03/26 01:28:53;;;;;;;;;;;20.50;34.50;;;;;;5092770;28;19920;-48
2022/03/26 01:31:22;;;;;;;;;;;20.50;34.50;;;;;;5070159;28;20280;-45
2022/03/26 01:33:49;;;;;;;;;;;20.50;34.50;;;;;;5067339;28;19920;-47
2022/03/26 01:36:15;;;;;;;;;;;20.50;34.50;;;;;;5067559;28;19978;-46
2022/03/26 01:38:42;;;;;;;;;;;20.50;34.50;;;;;;5067990;28;19925;-47
2022/03/26 01:41:09;;;;;;;;;;;20.50;34.50;;;;;;5069399;28;20341;-48
2022/03/26 01:43:37;;;;;;;;;;;20.50;34.50;;;;;;5067285;28;19931;-44
2022/03/26 01:46:04;;;;;;;;;;;20.50;34.50;;;;;;5070186;28;19990;-45
2022/03/26 01:48:30;;;;;;;;;;;20.50;34.50;;;;;;5069579;28;20027;-46
2022/03/26 01:51:14;;;;;;;;;;;20.50;34.50;;;;;;5069232;28;19963;-50
2022/03/26 01:53:41;;;;;;;;;;;20.50;34.50;;;;;;5094227;28;19927;-45
2022/03/26 01:56:08;;;;;;;;;;;20.50;34.50;;;;;;5067549;28;19982;-45
2022/03/26 01:58:35;;;;;;;;;;;20.50;34.50;;;;;;5093559;28;19921;-43
2022/03/26 02:01:03;;;;;;;;;;;20.50;34.50;;;;;;5068806;28;19929;-47
2022/03/26 02:03:30;;;;;;;;;;;20.50;34.50;;;;;;5064991;28;19932;-46
2022/03/26 02:05:57;;;;;;;;;;;20.50;34.50;;;;;;5069469;28;20011;-47
2022/03/26 02:08:24;;;;;;;;;;;20.50;34.50;;;;;;5070502;28;19924;-45
2022/03/26 02:10:51;;;;;;;;;;;20.50;34.50;;;;;;5069271;28;19998;-47
2022/03/26 02:13:17;;;;;;;;;;;20.50;34.50;;;;;;5068260;28;19924;-45
2022/03/26 02:15:44;;;;;;;;;;;20.50;34.50;;;;;;5063076;28;20288;-43
2022/03/26 02:18:13;;;;;;;;;;;20.50;34.50;;;;;;5071027;28;19932;-44
2022/03/26 02:20:42;;;;;;;;;;;20.50;34.50;;;;;;5068456;28;20269;-45
2022/03/26 02:23:09;;;;;;;;;;;20.50;34.50;;;;;;5066585;28;19925;-43
2022/03/26 02:25:35;;;;;;;;;;;20.50;34.50;;;;;;5077218;28;19931;-44
2022/03/26 02:28:02;;;;;;;;;;;20.50;34.50;;;;;;5067128;28;20358;-45
2022/03/26 02:30:30;;;;;;;;;;;20.50;34.50;;;;;;5069187;28;19920;-45
2022/03/26 02:32:57;;;;;;;;;;;20.50;34.50;;;;;;5067357;28;19924;-43
2022/03/26 02:35:25;;;;;;;;;;;20.50;34.50;;;;;;5070662;28;19924;-48
2022/03/26 02:37:53;;;;;;;;;;;20.50;34.50;;;;;;5071192;28;20316;-44
2022/03/26 02:40:21;;;;;;;;;;;20.50;34.50;;;;;;5078190;28;20353;-43
2022/03/26 02:42:47;;;;;;;;;;;20.50;34.50;;;;;;5062403;28;19978;-43
2022/03/26 02:45:14;;;;;;;;;;;20.50;34.50;;;;;;5068504;28;19963;-44
2022/03/26 02:47:40;;;;;;;;;;;20.50;34.50;;;;;;5064649;28;19962;-47
2022/03/26 02:50:09;;;;;;;;;;;20.50;34.50;;;;;;5069171;28;19928;-44
2022/03/26 02:52:37;;;;;;;;;;;20.50;34.50;;;;;;5056343;28;23418;-43
2022/03/26 02:55:07;;;;;;;;;;;20.50;34.50;;;;;;5066740;28;19927;-46
2022/03/26 02:57:33;;;;;;;;;;;20.50;34.50;;;;;;5068169;28;19996;-45
2022/03/26 03:00:00;;;;;;;;;;;20.50;34.50;;;;;;5064637;28;19931;-48
2022/03/26 03:02:27;;;;;;;;;;;20.50;34.50;;;;;;5066279;28;19920;-50
2022/03/26 03:04:54;;;;;;;;;;;20.50;34.50;;;;;;5062266;28;19921;-47
2022/03/26 03:07:21;;;;;;;;;;;20.50;34.50;;;;;;5093034;28;19956;-45
2022/03/26 03:09:47;;;;;;;;;;;20.50;34.50;;;;;;5063551;28;19928;-47
2022/03/26 03:12:16;;;;;;;;;;;20.50;34.50;;;;;;5066579;28;19958;-45
2022/03/26 03:14:42;;;;;;;;;;;20.50;34.60;;;;;;5062361;28;19920;-47
2022/03/26 03:17:11;;;;;;;;;;;20.50;34.60;;;;;;5092056;28;19924;-48
2022/03/26 03:19:38;;;;;;;;;;;20.50;34.60;;;;;;5062922;28;19924;-47
2022/03/26 03:22:05;;;;;;;;;;;20.50;34.60;;;;;;5083577;28;19929;-49
2022/03/26 03:24:32;;;;;;;;;;;20.50;34.60;;;;;;5060486;28;19928;-47
2022/03/26 03:26:58;;;;;;;;;;;20.50;34.60;;;;;;5093218;28;20012;-49
2022/03/26 03:29:27;;;;;;;;;;;20.50;34.60;;;;;;5082008;28;19959;-44
2022/03/26 03:31:54;;;;;;;;;;;20.50;34.60;;;;;;5087982;28;20262;-46
2022/03/26 03:34:21;;;;;;;;;;;20.50;34.60;;;;;;5064308;28;19924;-45
2022/03/26 03:36:48;;;;;;;;;;;20.50;34.80;;;;;;5062120;28;19924;-47
2022/03/26 03:39:14;;;;;;;;;;;20.50;34.60;;;;;;5092501;28;20636;-47
2022/03/26 03:41:41;;;;;;;;;;;20.50;34.50;;;;;;5067145;28;20330;-47
2022/03/26 03:44:10;;;;;;;;;;;20.50;34.60;;;;;;5067069;28;19920;-47
2022/03/26 03:46:38;;;;;;;;;;;20.50;34.60;;;;;;5068756;28;19942;-45
2022/03/26 03:49:04;;;;;;;;;;;20.50;34.60;;;;;;5069345;28;19942;-46
2022/03/26 03:51:31;;;;;;;;;;;20.50;34.60;;;;;;5065911;28;20193;-48
2022/03/26 03:53:58;;;;;;;;;;;20.50;34.60;;;;;;5062923;28;19920;-45
2022/03/26 03:56:25;;;;;;;;;;;20.50;34.60;;;;;;5072104;28;20272;-46
2022/03/26 03:58:52;;;;;;;;;;;20.50;34.70;;;;;;5069434;28;19969;-48
2022/03/26 04:01:19;;;;;;;;;;;20.50;34.60;;;;;;5065526;28;20011;-47
2022/03/26 04:03:47;;;;;;;;;;;20.50;34.60;;;;;;5059118;28;19926;-44
2022/03/26 04:06:14;;;;;;;;;;;20.50;34.60;;;;;;5064457;28;20350;-44
2022/03/26 04:08:41;;;;;;;;;;;20.50;34.60;;;;;;5065481;28;19936;-43
2022/03/26 04:11:08;;;;;;;;;;;20.50;34.60;;;;;;5062264;28;19927;-42
2022/03/26 04:13:35;;;;;;;;;;;20.50;34.70;;;;;;5062820;28;19931;-45
2022/03/26 04:16:02;;;;;;;;;;;20.50;34.60;;;;;;5062201;28;19921;-43
2022/03/26 04:18:28;;;;;;;;;;;20.60;34.80;;;;;;5064646;28;20162;-46
2022/03/26 04:20:56;;;;;;;;;;;20.50;34.60;;;;;;5071399;28;19967;-48
2022/03/26 04:23:24;;;;;;;;;;;20.50;34.60;;;;;;5064099;28;19930;-42
2022/03/26 04:25:50;;;;;;;;;;;20.50;34.60;;;;;;5076160;28;20265;-46
2022/03/26 04:28:17;;;;;;;;;;;20.50;34.70;;;;;;5063726;28;19998;-44
2022/03/26 04:30:44;;;;;;;;;;;20.50;34.70;;;;;;5064177;28;19964;-49
2022/03/26 04:33:12;;;;;;;;;;;20.50;34.60;;;;;;5083056;28;19936;-44
2022/03/26 04:35:39;;;;;;;;;;;20.50;34.70;;;;;;5092884;28;20023;-43
2022/03/26 04:38:07;;;;;;;;;;;20.50;34.60;;;;;;5066663;28;19959;-50
2022/03/26 04:40:34;;;;;;;;;;;20.50;34.60;;;;;;5064914;28;19943;-43
2022/03/26 04:43:01;;;;;;;;;;;20.50;34.60;;;;;;5065537;28;19956;-45
2022/03/26 04:45:27;;;;;;;;;;;20.50;34.60;;;;;;5066068;28;19931;-44
2022/03/26 04:47:54;;;;;;;;;;;20.50;34.60;;;;;;5063658;28;20057;-44
2022/03/26 04:50:21;;;;;;;;;;;20.50;34.60;;;;;;5063334;28;19959;-43
2022/03/26 04:52:48;;;;;;;;;;;20.50;34.70;;;;;;5072667;28;20088;-46
2022/03/26 04:55:18;;;;;;;;;;;20.50;34.70;;;;;;5061955;28;19957;-45
2022/03/26 04:57:46;;;;;;;;;;;20.50;34.70;;;;;;5067309;28;19921;-44
2022/03/26 05:00:14;;;;;;;;;;;20.50;34.70;;;;;;5065565;28;19928;-43
2022/03/26 05:02:41;;;;;;;;;;;20.50;34.70;;;;;;5057554;28;20245;-43
2022/03/26 05:05:08;;;;;;;;;;;20.50;34.70;;;;;;5062064;28;19995;-46
2022/03/26 05:07:46;;;;;;;;;;;20.50;34.70;;;;;;5060990;28;20341;-42
2022/03/26 05:10:13;;;;;;;;;;;20.50;34.70;;;;;;5063746;28;19920;-50
2022/03/26 05:12:42;;;;;;;;;;;20.50;34.70;;;;;;5064629;28;19920;-46
2022/03/26 05:15:09;;;;;;;;;;;20.50;34.70;;;;;;5076889;28;19928;-48
2022/03/26 05:17:36;;;;;;;;;;;20.50;34.70;;;;;;5068892;28;19931;-48
2022/03/26 05:20:03;;;;;;;;;;;20.50;34.70;;;;;;5066947;28;19926;-47
2022/03/26 05:22:29;;;;;;;;;;;20.50;34.70;;;;;;5069912;28;20280;-47
2022/03/26 05:24:57;;;;;;;;;;;20.50;34.70;;;;;;5067504;28;19928;-48
2022/03/26 05:27:24;;;;;;;;;;;20.50;34.70;;;;;;5065226;28;19955;-43
2022/03/26 05:29:52;;;;;;;;;;;20.50;34.70;;;;;;5065834;28;19925;-43
2022/03/26 05:32:19;;;;;;;;;;;20.50;34.70;;;;;;5070893;28;20282;-46
2022/03/26 05:34:46;;;;;;;;;;;20.50;34.70;;;;;;5065899;28;20067;-48
2022/03/26 05:37:13;;;;;;;;;;;20.50;34.70;;;;;;5062905;28;19921;-44
2022/03/26 05:39:42;;;;;;;;;;;20.50;34.70;;;;;;5065817;28;19920;-48
2022/03/26 05:42:09;;;;;;;;;;;20.50;34.70;;;;;;5070392;28;19966;-48
2022/03/26 05:44:37;;;;;;;;;;;20.50;34.70;;;;;;5068263;28;19967;-44
2022/03/26 05:47:06;;;;;;;;;;;20.50;34.70;;;;;;5069690;28;20483;-44
2022/03/26 05:49:32;;;;;;;;;;;20.50;34.70;;;;;;5079461;28;19951;-45
2022/03/26 05:51:59;;;;;;;;;;;20.50;34.70;;;;;;5066502;28;19968;-45
2022/03/26 05:54:26;;;;;;;;;;;20.50;34.70;;;;;;5074314;28;19963;-43
2022/03/26 05:56:53;;;;;;;;;;;20.50;34.70;;;;;;5071240;28;19932;-49
2022/03/26 05:59:21;;;;;;;;;;;20.50;34.70;;;;;;5072846;28;19963;-46
2022/03/26 06:01:47;;;;;;;;;;;20.50;34.70;;;;;;5066975;28;19920;-44
2022/03/26 06:04:16;;;;;;;;;;;20.50;34.70;;;;;;5093869;28;19920;-43
2022/03/26 06:06:42;;;;;;;;;;;20.50;34.70;;;;;;5075956;28;19921;-45
2022/03/26 06:09:10;;;;;;;;;;;20.50;34.70;;;;;;5105704;28;19971;-42
2022/03/26 06:11:36;;;;;;;;;;;20.50;35.30;;;;;;5106676;28;20277;-43
2022/03/26 06:14:04;;;;;;;;;;;20.60;34.80;;;;;;5065435;28;19999;-48
2022/03/26 06:16:31;;;;;;;;;;;20.60;34.90;;;;;;5050357;28;20024;-44
2022/03/26 06:18:58;;;;;;;;;;;20.60;34.80;;;;;;5087349;28;20190;-44
2022/03/26 06:21:27;;;;;;;;;;;20.60;34.80;;;;;;5065291;28;19921;-47
2022/03/26 06:23:58;;;;;;;;;;;20.60;34.80;;;;;;5066286;28;19927;-43
2022/03/26 06:26:25;;;;;;;;;;;20.60;34.90;;;;;;5066054;28;19925;-47
2022/03/26 06:28:52;;;;;;;;;;;20.60;34.90;;;;;;5050917;28;19925;-47
2022/03/26 06:31:19;;;;;;;;;;;20.60;34.90;;;;;;5065924;28;19920;-48
2022/03/26 06:33:45;;;;;;;;;;;20.60;34.90;;;;;;5049287;28;19921;-45
2022/03/26 06:36:15;;;;;;;;;;;20.60;34.90;;;;;;5097557;28;19928;-44
2022/03/26 06:38:44;;;;;;;;;;;20.60;34.90;;;;;;5066092;28;19930;-46
2022/03/26 06:41:12;;;;;;;;;;;20.60;34.90;;;;;;5067079;28;19969;-44
2022/03/26 06:43:39;;;;;;;;;;;20.60;35.00;;;;;;5065712;28;19927;-43
2022/03/26 06:46:08;;;;;;;;;;;20.60;34.90;;;;;;5063134;28;19921;-43
2022/03/26 06:48:35;;;;;;;;;;;20.60;35.00;;;;;;5067328;28;19920;-45
2022/03/26 06:51:02;;;;;;;;;;;20.60;35.00;;;;;;5061702;28;20014;-43
2022/03/26 06:53:29;;;;;;;;;;;20.60;34.90;;;;;;5065719;28;19921;-45
2022/03/26 06:55:57;;;;;;;;;;;20.60;35.00;;;;;;5066213;28;19984;-43
2022/03/26 06:58:23;;;;;;;;;;;20.60;35.00;;;;;;5097581;28;19928;-44
2022/03/26 07:00:50;;;;;;;;;;;20.60;34.90;;;;;;5060196;28;20011;-45
2022/03/26 07:03:17;;;;;;;;;;;20.60;34.90;;;;;;5061562;28;20341;-46
2022/03/26 07:05:44;;;;;;;;;;;20.60;34.90;;;;;;5065983;28;19935;-50
2022/03/26 07:08:11;;;;;;;;;;;20.60;35.00;;;;;;5096991;28;19931;-48
2022/03/26 07:10:41;;;;;;;;;;;20.60;35.00;;;;;;5063821;28;19920;-46
2022/03/26 07:13:11;;;;;;;;;;;20.60;35.00;;;;;;5064148;28;19970;-44
2022/03/26 07:15:41;;;;;;;;;;;20.60;35.00;;;;;;5059228;28;19970;-45
2022/03/26 07:18:09;;;;;;;;;;;20.60;35.00;;;;;;5064679;28;19956;-44
2022/03/26 07:20:35;;;;;;;;;;;20.60;35.00;;;;;;5064412;28;19927;-46
2022/03/26 07:23:02;;;;;;;;;;;20.60;35.00;;;;;;5064395;28;19947;-43
2022/03/26 07:25:30;;;;;;;;;;;20.60;35.00;;;;;;5063634;28;19924;-43
2022/03/26 07:27:57;;;;;;;;;;;20.60;35.00;;;;;;5097333;28;19951;-47
2022/03/26 07:30:25;;;;;;;;;;;20.60;35.00;;;;;;5062783;28;19924;-46
2022/03/26 07:32:52;;;;;;;;;;;20.60;35.00;;;;;;5091014;28;19986;-44
2022/03/26 07:35:20;;;;;;;;;;;20.60;35.10;;;;;;5069307;28;20023;-45
2022/03/26 07:37:47;;;;;;;;;;;20.60;35.00;;;;;;5062292;28;19939;-43
2022/03/26 07:40:13;;;;;;;;;;;20.60;35.10;;;;;;5058677;28;19933;-43
2022/03/26 07:42:40;;;;;;;;;;;20.60;35.10;;;;;;5058672;28;20393;-47
2022/03/26 07:45:07;;;;;;;;;;;20.60;35.00;;;;;;5060582;28;19928;-46
2022/03/26 07:47:39;;;;;;;;;;;20.60;35.10;;;;;;5064066;28;19920;-48
2022/03/26 07:50:06;;;;;;;;;;;20.60;35.10;;;;;;5064596;28;20357;-47
2022/03/26 07:52:33;;;;;;;;;;;20.60;35.10;;;;;;5060836;28;19935;-45
2022/03/26 07:54:59;;;;;;;;;;;20.60;35.10;;;;;;5067983;28;20242;-50
2022/03/26 07:57:28;;;;;;;;;;;20.60;35.10;;;;;;5067343;28;19929;-47
2022/03/26 07:59:55;;;;;;;;;;;20.60;35.10;;;;;;5092476;28;19927;-45
2022/03/26 08:02:21;;;;;;;;;;;20.60;35.10;;;;;;5060622;28;19986;-47
2022/03/26 08:04:49;;;;;;;;;;;20.60;35.10;;;;;;5088245;28;19960;-46
2022/03/26 08:07:16;;;;;;;;;;;20.60;35.10;;;;;;5066013;28;19970;-47
2022/03/26 08:09:43;;;;;;;;;;;20.60;35.10;;;;;;5062224;28;19932;-43
2022/03/26 08:12:10;;;;;;;;;;;20.60;35.10;;;;;;5064229;28;20380;-48
2022/03/26 08:14:37;;;;;;;;;;;20.60;35.10;;;;;;5070854;28;20495;-53
2022/03/26 08:17:04;;;;;;;;;;;20.60;35.10;;;;;;5064473;28;19925;-44
2022/03/26 08:19:32;;;;;;;;;;;20.60;35.10;;;;;;5060143;28;20011;-45
2022/03/26 08:22:03;;;;;;;;;;;20.60;35.10;;;;;;5061979;28;19932;-44
2022/03/26 08:24:29;;;;;;;;;;;20.60;35.10;;;;;;5070660;28;20014;-45
2022/03/26 08:26:56;;;;;;;;;;;20.60;35.10;;;;;;5064290;28;20045;-43
2022/03/26 08:29:23;;;;;;;;;;;20.60;35.10;;;;;;5062718;28;19924;-44
2022/03/26 08:31:49;;;;;;;;;;;20.60;35.10;;;;;;5060176;28;20547;-47
2022/03/26 08:34:18;;;;;;;;;;;20.60;35.10;;;;;;5087088;28;19921;-43
2022/03/26 08:36:45;;;;;;;;;;;20.60;35.10;;;;;;5062829;28;20013;-45
2022/03/26 08:39:13;;;;;;;;;;;20.60;35.20;;;;;;5087666;28;20011;-45
2022/03/26 08:41:40;;;;;;;;;;;20.60;35.10;;;;;;5060411;28;20327;-48
2022/03/26 08:44:08;;;;;;;;;;;20.60;35.10;;;;;;5066181;28;19965;-44
2022/03/26 08:46:35;;;;;;;;;;;20.60;35.80;;;;;;5064997;28;19926;-44
2022/03/26 08:49:04;;;;;;;;;;;20.60;35.20;;;;;;5065597;28;19931;-45
2022/03/26 08:51:31;;;;;;;;;;;20.60;35.10;;;;;;5064217;28;19924;-44
2022/03/26 08:53:57;;;;;;;;;;;20.60;35.20;;;;;;5067659;28;20301;-44
2022/03/26 08:56:26;;;;;;;;;;;20.60;35.20;;;;;;5068574;28;19974;-48
2022/03/26 08:58:53;;;;;;;;;;;20.60;35.20;;;;;;5063586;28;20402;-44
2022/03/26 09:01:20;;;;;;;;;;;20.60;35.20;;;;;;5074248;28;19925;-47
2022/03/26 09:03:50;;;;;;;;;;;20.60;35.20;;;;;;5069651;28;20455;-45
2022/03/26 09:06:17;;;;;;;;;;;20.60;35.20;;;;;;5064123;28;20277;-47
2022/03/26 09:08:44;;;;;;;;;;;20.60;35.20;;;;;;5062210;28;19980;-45
2022/03/26 09:11:10;;;;;;;;;;;20.60;35.20;;;;;;5059816;28;20011;-44
2022/03/26 09:13:45;;;;;;;;;;;20.60;35.20;;;;;;5062767;28;20385;-46
2022/03/26 09:16:12;;;;;;;;;;;20.60;35.20;;;;;;5067521;28;19940;-46
2022/03/26 09:18:39;;;;;;;;;;;20.60;35.20;;;;;;5056778;28;19959;-46
2022/03/26 09:21:06;;;;;;;;;;;20.60;35.20;;;;;;5068212;28;19925;-46
2022/03/26 09:23:33;;;;;;;;;;;20.60;35.30;;;;;;5066436;28;19924;-45
2022/03/26 09:26:04;;;;;;;;;;;20.60;35.20;;;;;;5056910;28;19920;-44
2022/03/26 09:28:30;;;;;;;;;;;20.60;35.50;;;;;;5059283;28;19998;-43
2022/03/26 09:31:03;;;;;;;;;;;20.60;35.20;;;;;;5052869;28;20463;-43
2022/03/26 09:33:29;;;;;;;;;;;20.60;35.30;;;;;;5067918;28;19943;-43
2022/03/26 09:35:59;;;;;;;;;;;20.60;35.30;;;;;;5067124;28;19951;-46
2022/03/26 09:38:26;;;;;;;;;;;20.60;35.40;;;;;;5059193;28;19961;-43
2022/03/26 09:40:53;;;;;;;;;;;20.60;35.40;;;;;;5060638;28;19921;-45
2022/03/26 09:43:22;;;;;;;;;;;20.60;35.50;;;;;;5047920;28;20386;-44
2022/03/26 09:45:49;;;;;;;;;;;20.60;35.50;;;;;;5067201;28;20371;-43
2022/03/26 09:48:17;;;;;;;;;;;20.60;35.50;;;;;;5068233;28;19952;-48
2022/03/26 09:50:44;;;;;;;;;;;20.60;35.50;;;;;;5067134;28;19924;-45
2022/03/26 09:53:11;;;;;;;;;;;20.60;35.50;;;;;;5083091;28;19921;-48
2022/03/26 09:55:37;;;;;;;;;;;20.60;35.50;;;;;;5065898;28;19924;-46
2022/03/26 09:58:04;;;;;;;;;;;20.60;35.50;;;;;;5074547;28;20281;-44
2022/03/26 10:00:31;;;;;;;;;;;20.60;35.50;;;;;;5069028;28;19920;-47
2022/03/26 10:02:58;;;;;;;;;;;20.60;35.50;;;;;;5066884;28;19970;-45
2022/03/26 10:05:34;;;;;;;;;;;20.60;35.50;;;;;;5090238;28;19977;-46
2022/03/26 10:08:15;;;;;;;;;;;20.60;35.50;;;;;;5066404;28;20440;-44
2022/03/26 10:10:45;;;;;;;;;;;20.60;35.50;;;;;;5053398;28;20328;-46
2022/03/26 10:13:15;;;;;;;;;;;20.60;35.50;;;;;;5068089;28;19920;-44
2022/03/26 10:15:57;;;;;;;;;;;20.60;35.50;;;;;;5067715;28;19946;-44
2022/03/26 10:18:23;;;;;;;;;;;20.60;35.50;;;;;;5060914;28;19952;-45
2022/03/26 10:20:59;;;;;;;;;;;20.60;35.50;;;;;;5069255;28;19920;-45
2022/03/26 10:23:26;;;;;;;;;;;20.60;35.50;;;;;;5097236;28;19921;-45
2022/03/26 10:26:04;;;;;;;;;;;20.60;35.50;;;;;;5066939;28;19924;-48
2022/03/26 10:28:31;;;;;;;;;;;20.60;35.50;;;;;;5065174;28;19999;-47
2022/03/26 10:34:01;;;;;;;;;;;20.60;35.50;;;;;;5097992;28;19932;-48
2022/03/26 10:36:29;;;;;;;;;;;20.60;35.50;;;;;;5065189;28;19946;-44
2022/03/26 10:38:56;;;;;;;;;;;20.60;35.50;;;;;;5058740;28;20425;-48
2022/03/26 10:41:22;;;;;;;;;;;20.60;35.40;;;;;;5057358;28;19920;-46
2022/03/26 10:43:49;;;;;;;;;;;20.60;35.50;;;;;;5058270;28;19920;-49
2022/03/26 10:46:23;;;;;;;;;;;20.60;35.50;;;;;;5062154;28;19927;-49
2022/03/26 10:48:50;;;;;;;;;;;20.60;35.50;;;;;;5056992;28;20442;-46
2022/03/26 10:51:18;;;;;;;;;;;20.60;35.50;;;;;;5058917;28;20286;-48
2022/03/26 10:53:47;;;;;;;;;;;20.60;35.50;;;;;;5055218;28;19929;-45
2022/03/26 10:56:14;;;;;;;;;;;20.60;35.50;;;;;;5088808;28;20365;-44
2022/03/26 10:58:41;;;;;;;;;;;20.60;35.50;;;;;;5054796;28;20338;-47
2022/03/26 11:01:08;;;;;;;;;;;20.60;35.50;;;;;;5093081;28;19921;-47
2022/03/26 11:03:35;;;;;;;;;;;20.60;35.50;;;;;;5064086;28;19932;-46
2022/03/26 11:06:02;;;;;;;;;;;20.60;35.50;;;;;;5073278;28;19972;-46
2022/03/26 11:08:30;;;;;;;;;;;20.60;35.50;;;;;;5054278;28;19994;-48
2022/03/26 11:10:59;;;;;;;;;;;20.60;35.50;;;;;;5054235;28;19956;-45
2022/03/26 11:13:26;;;;;;;;;;;20.60;35.50;;;;;;5065414;28;19926;-47
2022/03/26 11:15:54;;;;;;;;;;;20.60;35.50;;;;;;5066604;28;19959;-48
2022/03/26 11:18:31;;;;;;;;;;;20.60;35.50;;;;;;5055750;28;19921;-46
2022/03/26 11:21:03;;;;;;;;;;;20.60;35.50;;;;;;5054217;28;19929;-46
2022/03/26 11:23:32;;;;;;;;;;;20.60;35.60;;;;;;5063352;28;20023;-50
2022/03/26 11:26:20;;;;;;;;;;;20.60;35.60;;;;;;5061770;28;20259;-48
2022/03/26 11:29:06;;;;;;;;;;;20.60;35.60;;;;;;5053320;28;19921;-45
2022/03/26 11:31:34;;;;;;;;;;;20.60;35.50;;;;;;5058867;28;20286;-44
2022/03/26 11:34:01;;;;;;;;;;;20.60;35.60;;;;;;5084478;28;19925;-43
2022/03/26 11:36:28;;;;;;;;;;;20.60;35.60;;;;;;5072173;28;19943;-48
2022/03/26 11:38:56;;;;;;;;;;;20.60;35.60;;;;;;5085763;28;19982;-42
2022/03/26 11:41:29;;;;;;;;;;;20.60;35.60;;;;;;5062232;28;19920;-46
2022/03/26 11:43:58;;;;;;;;;;;20.60;35.60;;;;;;5065041;28;19954;-45
2022/03/26 11:52:16;;;;;;;;;;;20.60;35.60;;;;;;5058449;28;19962;-44
2022/03/26 11:54:42;;;;;;;;;;;20.60;35.50;;;;;;5061590;28;19935;-47
2022/03/26 11:57:09;;;;;;;;;;;20.60;35.50;;;;;;5056149;28;19973;-46
2022/03/26 11:59:37;;;;;;;;;;;20.60;35.50;;;;;;5052500;28;19925;-48
2022/03/26 12:02:17;;;;;;;;;;;20.60;35.50;;;;;;5052177;28;19925;-46
2022/03/26 12:04:47;;;;;;;;;;;20.70;35.60;;;;;;5081115;28;20365;-45
2022/03/26 12:07:14;;;;;;;;;;;20.70;35.60;;;;;;5057028;28;19931;-48
2022/03/26 12:09:41;;;;;;;;;;;20.60;35.60;;;;;;5059970;28;19925;-49
2022/03/26 12:12:17;;;;;;;;;;;20.70;35.60;;;;;;5054123;28;19920;-45
2022/03/26 12:14:59;;;;;;;;;;;20.70;35.60;;;;;;5050093;28;20285;-47
2022/03/26 12:17:44;;;;;;;;;;;20.70;35.60;;;;;;5047593;28;19924;-47
2022/03/26 12:20:26;;;;;;;;;;;20.70;35.60;;;;;;5058723;28;20011;-44
2022/03/26 12:22:53;;;;;;;;;;;20.70;35.60;;;;;;5070251;28;19936;-45
2022/03/26 12:25:32;;;;;;;;;;;20.70;35.60;;;;;;5058230;28;19920;-44
2022/03/26 12:28:00;;;;;;;;;;;20.70;35.60;;;;;;5053837;28;19944;-43
2022/03/26 12:30:27;;;;;;;;;;;20.70;35.60;;;;;;5062476;28;19939;-45
2022/03/26 12:32:55;;;;;;;;;;;20.70;35.60;;;;;;5061675;28;19921;-43
2022/03/26 12:35:22;;;;;;;;;;;20.70;35.60;;;;;;5079674;28;19975;-43
2022/03/26 12:37:51;;;;;;;;;;;20.70;35.60;;;;;;5094526;28;20327;-44
2022/03/26 12:40:18;;;;;;;;;;;20.70;35.60;;;;;;5067504;28;19927;-46
2022/03/26 12:42:45;;;;;;;;;;;20.70;35.60;;;;;;5070017;28;20031;-45
2022/03/26 12:45:16;;;;;;;;;;;20.70;35.70;;;;;;5096243;28;19929;-44
2022/03/26 12:47:46;;;;;;;;;;;20.70;35.70;;;;;;5071130;28;20080;-45
2022/03/26 12:50:13;;;;;;;;;;;20.70;35.70;;;;;;5058735;28;19998;-43
2022/03/26 12:52:40;;;;;;;;;;;20.70;35.70;;;;;;5060367;28;19940;-46
2022/03/26 12:55:08;;;;;;;;;;;20.70;35.70;;;;;;5065522;28;19940;-45
2022/03/26 13:00:21;;;;;;;;;;;20.70;35.80;;;;;;5068828;28;20007;-44
2022/03/26 13:02:48;;;;;;;;;;;20.70;35.80;;;;;;5084314;28;19920;-44
2022/03/26 13:05:15;;;;;;;;;;;20.70;35.70;;;;;;5070782;28;19927;-45
2022/03/26 13:07:41;;;;;;;;;;;20.70;35.70;;;;;;5063566;28;20328;-43
2022/03/26 13:10:10;;;;;;;;;;;20.70;35.70;;;;;;5058857;28;20212;-45
2022/03/26 13:12:37;;;;;;;;;;;20.70;35.70;;;;;;5064234;28;20092;-48
2022/03/26 13:15:05;;;;;;;;;;;20.70;35.70;;;;;;5097781;28;19924;-45
2022/03/26 13:17:32;;;;;;;;;;;20.70;35.70;;;;;;5067600;28;20009;-43
2022/03/26 13:19:59;;;;;;;;;;;20.70;35.70;;;;;;5061177;28;20036;-43
2022/03/26 13:22:26;;;;;;;;;;;20.70;35.70;;;;;;5060216;28;20027;-47
2022/03/26 13:24:53;;;;;;;;;;;20.70;35.70;;;;;;5063921;28;20394;-45
2022/03/26 13:27:23;;;;;;;;;;;20.70;35.70;;;;;;5061127;28;20011;-43
2022/03/26 13:29:49;;;;;;;;;;;20.70;35.70;;;;;;5074411;28;19921;-50
2022/03/26 13:32:19;;;;;;;;;;;20.70;35.70;;;;;;5054373;28;20028;-46
2022/03/26 13:34:47;;;;;;;;;;;20.70;35.60;;;;;;5056372;28;20011;-44
2022/03/26 13:37:15;;;;;;;;;;;20.70;35.70;;;;;;5060885;28;20103;-45
2022/03/26 13:39:46;;;;;;;;;;;20.70;35.70;;;;;;5057734;28;19925;-44
2022/03/26 13:42:14;;;;;;;;;;;20.70;35.60;;;;;;5060587;28;19925;-45
2022/03/26 13:44:42;;;;;;;;;;;20.70;35.60;;;;;;5095512;28;20573;-47
2022/03/26 13:47:14;;;;;;;;;;;20.70;35.60;;;;;;5061252;28;19970;-44
2022/03/26 13:49:42;;;;;;;;;;;20.70;35.60;;;;;;5061766;28;19928;-45
2022/03/26 13:52:22;;;;;;;;;;;20.70;35.60;;;;;;5066120;28;19928;-46
2022/03/26 13:54:49;;;;;;;;;;;20.70;35.70;;;;;;5053463;28;20330;-44
2022/03/26 13:57:16;;;;;;;;;;;20.70;35.70;;;;;;5057937;28;19935;-44
2022/03/26 13:59:47;;;;;;;;;;;20.80;35.80;;;;;;5064063;28;20152;-46
2022/03/26 14:02:14;;;;;;;;;;;20.80;35.80;;;;;;5063543;28;20318;-48
2022/03/26 14:04:42;;;;;;;;;;;20.80;35.90;;;;;;5063746;28;19932;-48
2022/03/26 14:07:09;;;;;;;;;;;20.80;35.90;;;;;;5093339;28;19946;-44
2022/03/26 14:09:35;;;;;;;;;;;20.80;35.90;;;;;;5085223;28;19927;-46
2022/03/26 14:12:03;;;;;;;;;;;20.80;35.90;;;;;;5055821;28;19927;-45
2022/03/26 14:14:30;;;;;;;;;;;20.80;35.90;;;;;;5084124;28;20335;-44
2022/03/26 14:16:58;;;;;;;;;;;20.80;35.90;;;;;;5057197;28;19931;-48
2022/03/26 14:19:25;;;;;;;;;;;20.80;35.90;;;;;;5055563;28;20011;-44
2022/03/26 14:21:52;;;;;;;;;;;20.80;36.00;;;;;;5057430;28;19925;-49
2022/03/26 14:24:18;;;;;;;;;;;20.80;35.90;;;;;;5052199;28;19927;-44
2022/03/26 14:26:45;;;;;;;;;;;20.80;36.00;;;;;;5089088;27;19921;-46
2022/03/26 14:29:12;;;;;;;;;;;20.80;36.00;;;;;;5059474;28;20022;-49
2022/03/26 14:31:38;;;;;;;;;;;20.80;36.00;;;;;;5050071;28;19937;-47